N78AL LFMN-LEAM
Flight info
| Callsign | N78AL |
|---|---|
| Flight time | 1h 33m |
| Altitude | 39000 |
| Route | EPOLO DCT MAMES DCT BISBA DCT BCN DCT VLC DCT DOSEK |
| Aircraft | CL60/M-SADE3FGHIJ3J4J7P2RWXY/HB1D1 |
Departure
| Time | 2026-04-15 08:19 |
|---|---|
| Airport | Nice-Côte d'Azur Airport (LFMN) |
Arrival
| Time | 2026-04-15 09:52 |
|---|---|
| Airport | Almería Airport (LEAM) |
| Time | Latitude | Longitude | Altitude | Speed | Heading |
|---|---|---|---|---|---|
| 2026-04-15 08:13 | 43.66273 | 7.21469 | 27 ft | 0 kts | 135° |
| 2026-04-15 08:14 | 43.66264 | 7.21482 | 26 ft | 6 kts | 135° |
| 2026-04-15 08:14 | 43.66206 | 7.21491 | 25 ft | 11 kts | 219° |
| 2026-04-15 08:14 | 43.66137 | 7.21398 | 24 ft | 16 kts | 224° |
| 2026-04-15 08:15 | 43.66048 | 7.21277 | 22 ft | 19 kts | 224° |
| 2026-04-15 08:15 | 43.65942 | 7.21131 | 20 ft | 23 kts | 225° |
| 2026-04-15 08:15 | 43.65818 | 7.20961 | 17 ft | 26 kts | 225° |
| 2026-04-15 08:15 | 43.65686 | 7.20778 | 18 ft | 27 kts | 225° |
| 2026-04-15 08:16 | 43.65542 | 7.20582 | 15 ft | 30 kts | 224° |
| 2026-04-15 08:16 | 43.65392 | 7.20375 | 13 ft | 24 kts | 225° |
| 2026-04-15 08:16 | 43.65296 | 7.20294 | 11 ft | 13 kts | 165° |
| 2026-04-15 08:16 | 43.65218 | 7.20378 | 11 ft | 18 kts | 131° |
| 2026-04-15 08:17 | 43.65111 | 7.20495 | 11 ft | 17 kts | 157° |
| 2026-04-15 08:17 | 43.64994 | 7.20464 | 11 ft | 20 kts | 221° |
| 2026-04-15 08:17 | 43.64886 | 7.20316 | 10 ft | 23 kts | 225° |
| 2026-04-15 08:17 | 43.64793 | 7.20290 | 10 ft | 13 kts | 145° |
| 2026-04-15 08:18 | 43.64782 | 7.20398 | 11 ft | 13 kts | 45° |
| 2026-04-15 08:18 | 43.64889 | 7.20547 | 11 ft | 49 kts | 45° |
| 2026-04-15 08:18 | 43.65397 | 7.21245 | 15 ft | 149 kts | 45° |
| 2026-04-15 08:18 | 43.66255 | 7.22399 | 558 ft | 185 kts | 45° |
| 2026-04-15 08:19 | 43.66773 | 7.23962 | 1670 ft | 190 kts | 88° |
| 2026-04-15 08:19 | 43.66294 | 7.25518 | 2897 ft | 189 kts | 133° |
| 2026-04-15 08:19 | 43.65390 | 7.26633 | 4263 ft | 180 kts | 139° |
| 2026-04-15 08:19 | 43.64372 | 7.27942 | 4392 ft | 217 kts | 135° |
| 2026-04-15 08:20 | 43.63303 | 7.29402 | 4091 ft | 215 kts | 135° |
| 2026-04-15 08:20 | 43.62223 | 7.30878 | 3976 ft | 220 kts | 135° |
| 2026-04-15 08:20 | 43.61086 | 7.32299 | 3973 ft | 230 kts | 146° |
| 2026-04-15 08:20 | 43.59529 | 7.32953 | 4863 ft | 244 kts | 181° |
| 2026-04-15 08:21 | 43.57985 | 7.32446 | 6579 ft | 232 kts | 206° |
| 2026-04-15 08:21 | 43.56651 | 7.31321 | 7959 ft | 234 kts | 213° |
| 2026-04-15 08:21 | 43.55317 | 7.30091 | 9245 ft | 238 kts | 213° |
| 2026-04-15 08:21 | 43.53909 | 7.28799 | 10253 ft | 256 kts | 213° |
| 2026-04-15 08:22 | 43.52368 | 7.27388 | 10998 ft | 281 kts | 213° |
| 2026-04-15 08:22 | 43.50717 | 7.25877 | 12052 ft | 293 kts | 213° |
| 2026-04-15 08:22 | 43.49019 | 7.24326 | 13201 ft | 300 kts | 213° |
| 2026-04-15 08:22 | 43.47276 | 7.22736 | 14350 ft | 305 kts | 213° |
| 2026-04-15 08:23 | 43.45499 | 7.21116 | 15449 ft | 310 kts | 213° |
| 2026-04-15 08:23 | 43.43705 | 7.19481 | 16484 ft | 315 kts | 213° |
| 2026-04-15 08:23 | 43.41874 | 7.17814 | 17467 ft | 319 kts | 213° |
| 2026-04-15 08:23 | 43.40002 | 7.16112 | 18407 ft | 324 kts | 213° |
| 2026-04-15 08:24 | 43.38119 | 7.14402 | 19294 ft | 329 kts | 213° |
| 2026-04-15 08:24 | 43.36213 | 7.12672 | 20141 ft | 333 kts | 213° |
| 2026-04-15 08:24 | 43.34260 | 7.10900 | 20962 ft | 338 kts | 213° |
| 2026-04-15 08:24 | 43.32287 | 7.09113 | 21745 ft | 342 kts | 213° |
| 2026-04-15 08:25 | 43.30309 | 7.07321 | 22489 ft | 346 kts | 213° |
| 2026-04-15 08:25 | 43.28270 | 7.05477 | 23193 ft | 351 kts | 213° |
| 2026-04-15 08:25 | 43.26172 | 7.03581 | 23343 ft | 374 kts | 213° |
| 2026-04-15 08:25 | 43.23929 | 7.01555 | 23543 ft | 391 kts | 213° |
| 2026-04-15 08:26 | 43.21621 | 6.99474 | 24006 ft | 400 kts | 213° |
| 2026-04-15 08:26 | 43.19281 | 6.97365 | 24599 ft | 405 kts | 213° |
| 2026-04-15 08:26 | 43.17076 | 6.95045 | 25202 ft | 407 kts | 224° |
| 2026-04-15 08:26 | 43.15091 | 6.92191 | 25758 ft | 411 kts | 227° |
| 2026-04-15 08:27 | 43.13130 | 6.89334 | 26295 ft | 414 kts | 227° |
| 2026-04-15 08:27 | 43.11161 | 6.86475 | 26810 ft | 417 kts | 227° |
| 2026-04-15 08:27 | 43.09149 | 6.83556 | 27307 ft | 421 kts | 227° |
| 2026-04-15 08:27 | 43.07115 | 6.80609 | 27780 ft | 424 kts | 227° |
| 2026-04-15 08:28 | 43.05102 | 6.77697 | 28223 ft | 427 kts | 227° |
| 2026-04-15 08:28 | 43.03060 | 6.74746 | 28651 ft | 430 kts | 227° |
| 2026-04-15 08:28 | 43.00982 | 6.71747 | 29066 ft | 433 kts | 227° |
| 2026-04-15 08:28 | 42.98901 | 6.68747 | 29462 ft | 435 kts | 227° |
| 2026-04-15 08:29 | 42.96821 | 6.65752 | 29836 ft | 438 kts | 227° |
| 2026-04-15 08:29 | 42.94709 | 6.62714 | 30199 ft | 441 kts | 227° |
| 2026-04-15 08:29 | 42.92580 | 6.59657 | 30548 ft | 443 kts | 227° |
| 2026-04-15 08:29 | 42.90472 | 6.56630 | 30877 ft | 445 kts | 227° |
| 2026-04-15 08:30 | 42.88533 | 6.53306 | 31200 ft | 447 kts | 239° |
| 2026-04-15 08:30 | 42.87251 | 6.49454 | 31486 ft | 449 kts | 251° |
| 2026-04-15 08:30 | 42.86238 | 6.45414 | 31740 ft | 452 kts | 251° |
| 2026-04-15 08:30 | 42.85220 | 6.41380 | 32014 ft | 454 kts | 251° |
| 2026-04-15 08:31 | 42.84187 | 6.37301 | 32283 ft | 456 kts | 251° |
| 2026-04-15 08:31 | 42.83154 | 6.33229 | 32533 ft | 457 kts | 251° |
| 2026-04-15 08:31 | 42.82112 | 6.29128 | 32765 ft | 459 kts | 251° |
| 2026-04-15 08:31 | 42.81061 | 6.24998 | 32984 ft | 461 kts | 251° |
| 2026-04-15 08:32 | 42.80014 | 6.20894 | 33188 ft | 462 kts | 251° |
| 2026-04-15 08:32 | 42.78951 | 6.16735 | 33385 ft | 464 kts | 251° |
| 2026-04-15 08:32 | 42.77885 | 6.12573 | 33571 ft | 465 kts | 251° |
| 2026-04-15 08:32 | 42.76826 | 6.08444 | 33761 ft | 466 kts | 251° |
| 2026-04-15 08:33 | 42.75762 | 6.04301 | 34015 ft | 465 kts | 251° |
| 2026-04-15 08:33 | 42.74691 | 6.00141 | 34302 ft | 463 kts | 251° |
| 2026-04-15 08:33 | 42.73633 | 5.96039 | 34585 ft | 462 kts | 251° |
| 2026-04-15 08:33 | 42.72580 | 5.91962 | 34851 ft | 461 kts | 251° |
| 2026-04-15 08:34 | 42.71506 | 5.87813 | 35106 ft | 460 kts | 251° |
| 2026-04-15 08:34 | 42.70452 | 5.83749 | 35347 ft | 459 kts | 251° |
| 2026-04-15 08:34 | 42.69395 | 5.79677 | 35571 ft | 459 kts | 251° |
| 2026-04-15 08:34 | 42.68325 | 5.75562 | 35788 ft | 458 kts | 251° |
| 2026-04-15 08:35 | 42.67266 | 5.71500 | 35996 ft | 458 kts | 251° |
| 2026-04-15 08:35 | 42.66210 | 5.67454 | 36213 ft | 458 kts | 251° |
| 2026-04-15 08:35 | 42.65146 | 5.63387 | 36390 ft | 457 kts | 251° |
| 2026-04-15 08:35 | 42.64069 | 5.59274 | 36562 ft | 457 kts | 251° |
| 2026-04-15 08:36 | 42.63007 | 5.55226 | 36725 ft | 458 kts | 251° |
| 2026-04-15 08:36 | 42.61945 | 5.51189 | 36883 ft | 458 kts | 251° |
| 2026-04-15 08:36 | 42.60873 | 5.47116 | 37037 ft | 458 kts | 251° |
| 2026-04-15 08:36 | 42.59790 | 5.43011 | 37187 ft | 458 kts | 251° |
| 2026-04-15 08:37 | 42.58729 | 5.38994 | 37330 ft | 458 kts | 251° |
| 2026-04-15 08:37 | 42.57643 | 5.34892 | 37471 ft | 458 kts | 250° |
| 2026-04-15 08:37 | 42.56574 | 5.30856 | 37605 ft | 458 kts | 250° |
| 2026-04-15 08:37 | 42.55499 | 5.26807 | 37733 ft | 458 kts | 250° |
| 2026-04-15 08:38 | 42.54420 | 5.22751 | 37856 ft | 458 kts | 250° |
| 2026-04-15 08:38 | 42.53337 | 5.18688 | 37975 ft | 458 kts | 250° |
| 2026-04-15 08:38 | 42.52258 | 5.14644 | 38087 ft | 458 kts | 250° |
| 2026-04-15 08:38 | 42.51173 | 5.10584 | 38195 ft | 458 kts | 250° |
| 2026-04-15 08:39 | 42.50085 | 5.06524 | 38298 ft | 458 kts | 250° |
| 2026-04-15 08:39 | 42.49009 | 5.02512 | 38399 ft | 458 kts | 250° |
| 2026-04-15 08:39 | 42.47914 | 4.98434 | 38502 ft | 458 kts | 250° |
| 2026-04-15 08:40 | 42.45740 | 4.90362 | 38692 ft | 458 kts | 250° |
| 2026-04-15 08:40 | 42.43558 | 4.82289 | 38867 ft | 458 kts | 250° |
| 2026-04-15 08:41 | 42.41369 | 4.74214 | 39000 ft | 459 kts | 250° |
| 2026-04-15 08:41 | 42.39154 | 4.66072 | 39002 ft | 460 kts | 250° |
| 2026-04-15 08:42 | 42.36946 | 4.57985 | 39002 ft | 459 kts | 250° |
| 2026-04-15 08:42 | 42.34739 | 4.49921 | 39002 ft | 459 kts | 250° |
| 2026-04-15 08:43 | 42.32513 | 4.41823 | 39003 ft | 458 kts | 250° |
| 2026-04-15 08:43 | 42.30281 | 4.33723 | 39002 ft | 458 kts | 249° |
| 2026-04-15 08:44 | 42.28055 | 4.25674 | 39002 ft | 458 kts | 249° |
| 2026-04-15 08:44 | 42.25829 | 4.17651 | 39003 ft | 458 kts | 249° |
| 2026-04-15 08:45 | 42.23593 | 4.09617 | 39003 ft | 458 kts | 249° |
| 2026-04-15 08:45 | 42.21339 | 4.01544 | 39003 ft | 458 kts | 249° |
| 2026-04-15 08:46 | 42.18854 | 3.93649 | 39002 ft | 458 kts | 246° |
| 2026-04-15 08:46 | 42.16269 | 3.85759 | 39003 ft | 459 kts | 246° |
| 2026-04-15 08:47 | 42.13683 | 3.77883 | 39003 ft | 459 kts | 246° |
| 2026-04-15 08:47 | 42.11091 | 3.70011 | 39003 ft | 459 kts | 246° |
| 2026-04-15 08:48 | 42.08400 | 3.62204 | 39005 ft | 458 kts | 240° |
| 2026-04-15 08:48 | 42.04894 | 3.55069 | 39001 ft | 459 kts | 236° |
| 2026-04-15 08:49 | 42.01308 | 3.47951 | 39002 ft | 459 kts | 236° |
| 2026-04-15 08:49 | 41.97729 | 3.40857 | 39002 ft | 459 kts | 236° |
| 2026-04-15 08:50 | 41.94135 | 3.33750 | 39002 ft | 459 kts | 236° |
| 2026-04-15 08:50 | 41.90562 | 3.26696 | 39003 ft | 459 kts | 236° |
| 2026-04-15 08:51 | 41.86971 | 3.19620 | 39003 ft | 459 kts | 236° |
| 2026-04-15 08:51 | 41.83371 | 3.12544 | 39002 ft | 459 kts | 236° |
| 2026-04-15 08:52 | 41.79766 | 3.05473 | 39002 ft | 459 kts | 236° |
| 2026-04-15 08:52 | 41.76170 | 2.98434 | 39003 ft | 459 kts | 236° |
| 2026-04-15 08:53 | 41.72559 | 2.91383 | 39002 ft | 459 kts | 236° |
| 2026-04-15 08:53 | 41.68934 | 2.84321 | 39002 ft | 459 kts | 236° |
| 2026-04-15 08:54 | 41.65321 | 2.77298 | 39002 ft | 459 kts | 236° |
| 2026-04-15 08:54 | 41.61711 | 2.70297 | 39002 ft | 459 kts | 236° |
| 2026-04-15 08:55 | 41.58087 | 2.63284 | 39003 ft | 459 kts | 236° |
| 2026-04-15 08:55 | 41.54437 | 2.56236 | 39003 ft | 459 kts | 236° |
| 2026-04-15 08:56 | 41.50818 | 2.49264 | 39003 ft | 459 kts | 236° |
| 2026-04-15 08:56 | 41.47155 | 2.42226 | 39003 ft | 459 kts | 236° |
| 2026-04-15 08:57 | 41.43506 | 2.35228 | 39002 ft | 459 kts | 236° |
| 2026-04-15 08:57 | 41.39850 | 2.28232 | 39003 ft | 459 kts | 235° |
| 2026-04-15 08:58 | 41.36202 | 2.21269 | 39002 ft | 459 kts | 235° |
| 2026-04-15 08:58 | 41.30689 | 2.10835 | 39002 ft | 459 kts | 232° |
| 2026-04-15 08:59 | 41.26463 | 2.04437 | 39002 ft | 458 kts | 228° |
| 2026-04-15 08:59 | 41.22204 | 1.98148 | 39003 ft | 459 kts | 228° |
| 2026-04-15 09:00 | 41.17926 | 1.91841 | 39003 ft | 459 kts | 228° |
| 2026-04-15 09:00 | 41.13634 | 1.85523 | 39002 ft | 459 kts | 228° |
| 2026-04-15 09:01 | 41.09358 | 1.79239 | 39003 ft | 459 kts | 228° |
| 2026-04-15 09:01 | 41.05076 | 1.72958 | 39002 ft | 459 kts | 228° |
| 2026-04-15 09:02 | 41.00815 | 1.66719 | 39003 ft | 459 kts | 228° |
| 2026-04-15 09:02 | 40.96527 | 1.60452 | 39002 ft | 459 kts | 228° |
| 2026-04-15 09:03 | 40.92236 | 1.54193 | 39003 ft | 459 kts | 228° |
| 2026-04-15 09:03 | 40.87922 | 1.47914 | 39002 ft | 459 kts | 228° |
| 2026-04-15 09:04 | 40.83637 | 1.41688 | 39002 ft | 459 kts | 228° |
| 2026-04-15 09:04 | 40.79332 | 1.35446 | 39003 ft | 459 kts | 228° |
| 2026-04-15 09:05 | 40.75043 | 1.29240 | 39003 ft | 459 kts | 227° |
| 2026-04-15 09:05 | 40.70732 | 1.23016 | 39002 ft | 459 kts | 227° |
| 2026-04-15 09:06 | 40.66403 | 1.16778 | 39002 ft | 459 kts | 227° |
| 2026-04-15 09:06 | 40.62076 | 1.10555 | 39003 ft | 459 kts | 227° |
| 2026-04-15 09:07 | 40.57771 | 1.04377 | 39003 ft | 459 kts | 227° |
| 2026-04-15 09:07 | 40.53455 | 0.98195 | 39002 ft | 459 kts | 227° |
| 2026-04-15 09:08 | 40.49126 | 0.92007 | 39003 ft | 459 kts | 227° |
| 2026-04-15 09:08 | 40.44793 | 0.85826 | 39003 ft | 459 kts | 227° |
| 2026-04-15 09:09 | 40.40479 | 0.79687 | 39003 ft | 459 kts | 227° |
| 2026-04-15 09:09 | 40.36158 | 0.73547 | 39003 ft | 459 kts | 227° |
| 2026-04-15 09:10 | 40.31789 | 0.67353 | 39003 ft | 459 kts | 227° |
| 2026-04-15 09:10 | 40.27463 | 0.61233 | 39003 ft | 459 kts | 227° |
| 2026-04-15 09:11 | 40.23122 | 0.55104 | 39003 ft | 459 kts | 227° |
| 2026-04-15 09:11 | 40.18753 | 0.48948 | 39002 ft | 459 kts | 227° |
| 2026-04-15 09:12 | 40.14399 | 0.42825 | 39002 ft | 459 kts | 227° |
| 2026-04-15 09:12 | 40.10074 | 0.36754 | 39003 ft | 459 kts | 227° |
| 2026-04-15 09:13 | 40.05697 | 0.30625 | 39003 ft | 459 kts | 227° |
| 2026-04-15 09:13 | 40.01365 | 0.24570 | 39003 ft | 459 kts | 227° |
| 2026-04-15 09:14 | 39.97002 | 0.18483 | 39003 ft | 459 kts | 227° |
| 2026-04-15 09:14 | 39.92646 | 0.12420 | 39003 ft | 459 kts | 227° |
| 2026-04-15 09:15 | 39.88287 | 0.06362 | 39003 ft | 459 kts | 227° |
| 2026-04-15 09:15 | 39.83904 | 0.00285 | 39002 ft | 459 kts | 227° |
| 2026-04-15 09:16 | 39.79530 | -0.05769 | 39002 ft | 459 kts | 227° |
| 2026-04-15 09:16 | 39.75158 | -0.11809 | 39002 ft | 459 kts | 227° |
| 2026-04-15 09:17 | 39.70806 | -0.17807 | 39003 ft | 459 kts | 227° |
| 2026-04-15 09:17 | 39.66433 | -0.23825 | 39002 ft | 459 kts | 227° |
| 2026-04-15 09:18 | 39.62032 | -0.29867 | 39003 ft | 459 kts | 227° |
| 2026-04-15 09:18 | 39.57663 | -0.35855 | 39003 ft | 459 kts | 227° |
| 2026-04-15 09:19 | 39.53295 | -0.41829 | 39003 ft | 459 kts | 227° |
| 2026-04-15 09:19 | 39.48716 | -0.47631 | 39002 ft | 458 kts | 218° |
| 2026-04-15 09:20 | 39.43307 | -0.51961 | 39001 ft | 458 kts | 208° |
| 2026-04-15 09:20 | 39.37690 | -0.55846 | 39002 ft | 458 kts | 208° |
| 2026-04-15 09:21 | 39.32069 | -0.59731 | 39002 ft | 458 kts | 208° |
| 2026-04-15 09:21 | 39.26459 | -0.63602 | 39002 ft | 458 kts | 208° |
| 2026-04-15 09:22 | 39.20815 | -0.67491 | 39002 ft | 458 kts | 208° |
| 2026-04-15 09:22 | 39.15208 | -0.71346 | 39002 ft | 459 kts | 208° |
| 2026-04-15 09:23 | 39.09557 | -0.75226 | 39002 ft | 459 kts | 208° |
| 2026-04-15 09:23 | 39.03915 | -0.79092 | 39002 ft | 459 kts | 208° |
| 2026-04-15 09:24 | 38.98273 | -0.82952 | 39002 ft | 459 kts | 208° |
| 2026-04-15 09:24 | 38.92641 | -0.86797 | 39002 ft | 459 kts | 208° |
| 2026-04-15 09:25 | 38.86988 | -0.90650 | 39002 ft | 459 kts | 208° |
| 2026-04-15 09:25 | 38.81321 | -0.94506 | 39002 ft | 459 kts | 208° |
| 2026-04-15 09:26 | 38.75691 | -0.98329 | 39002 ft | 459 kts | 208° |
| 2026-04-15 09:26 | 38.70028 | -1.02168 | 39002 ft | 459 kts | 208° |
| 2026-04-15 09:27 | 38.64363 | -1.06002 | 39002 ft | 459 kts | 208° |
| 2026-04-15 09:27 | 38.58738 | -1.09802 | 39002 ft | 459 kts | 208° |
| 2026-04-15 09:28 | 38.53082 | -1.13616 | 39000 ft | 459 kts | 208° |
| 2026-04-15 09:28 | 38.50259 | -1.15516 | 38693 ft | 465 kts | 208° |
| 2026-04-15 09:28 | 38.47364 | -1.17464 | 38133 ft | 465 kts | 208° |
| 2026-04-15 09:29 | 38.44511 | -1.19382 | 37556 ft | 462 kts | 208° |
| 2026-04-15 09:29 | 38.41652 | -1.21303 | 36950 ft | 460 kts | 208° |
| 2026-04-15 09:29 | 38.38832 | -1.23195 | 36352 ft | 459 kts | 208° |
| 2026-04-15 09:29 | 38.35989 | -1.25101 | 35723 ft | 459 kts | 208° |
| 2026-04-15 09:30 | 38.33178 | -1.26983 | 35132 ft | 459 kts | 208° |
| 2026-04-15 09:30 | 38.30341 | -1.28882 | 34520 ft | 460 kts | 208° |
| 2026-04-15 09:30 | 38.27511 | -1.30774 | 33910 ft | 461 kts | 208° |
| 2026-04-15 09:30 | 38.24678 | -1.32666 | 33299 ft | 461 kts | 208° |
| 2026-04-15 09:31 | 38.21808 | -1.34582 | 32681 ft | 459 kts | 208° |
| 2026-04-15 09:31 | 38.18995 | -1.36457 | 32075 ft | 455 kts | 208° |
| 2026-04-15 09:31 | 38.16216 | -1.38309 | 31475 ft | 450 kts | 208° |
| 2026-04-15 09:31 | 38.13470 | -1.40137 | 30884 ft | 445 kts | 208° |
| 2026-04-15 09:32 | 38.10733 | -1.41958 | 30294 ft | 441 kts | 208° |
| 2026-04-15 09:32 | 38.08009 | -1.43768 | 29707 ft | 437 kts | 208° |
| 2026-04-15 09:32 | 38.05360 | -1.45527 | 29137 ft | 433 kts | 208° |
| 2026-04-15 09:32 | 38.02689 | -1.47298 | 28560 ft | 429 kts | 208° |
| 2026-04-15 09:33 | 38.00045 | -1.49051 | 27991 ft | 425 kts | 208° |
| 2026-04-15 09:33 | 37.97437 | -1.50779 | 27427 ft | 421 kts | 208° |
| 2026-04-15 09:33 | 37.94862 | -1.52483 | 26873 ft | 418 kts | 208° |
| 2026-04-15 09:33 | 37.92266 | -1.54200 | 26313 ft | 414 kts | 208° |
| 2026-04-15 09:34 | 37.89743 | -1.55867 | 25772 ft | 411 kts | 208° |
| 2026-04-15 09:34 | 37.87206 | -1.57542 | 25224 ft | 407 kts | 208° |
| 2026-04-15 09:34 | 37.84706 | -1.59191 | 24687 ft | 404 kts | 208° |
| 2026-04-15 09:34 | 37.82223 | -1.60828 | 24152 ft | 401 kts | 208° |
| 2026-04-15 09:35 | 37.79774 | -1.62442 | 23626 ft | 397 kts | 208° |
| 2026-04-15 09:35 | 37.77317 | -1.64058 | 23097 ft | 394 kts | 208° |
| 2026-04-15 09:35 | 37.74879 | -1.65662 | 22573 ft | 391 kts | 207° |
| 2026-04-15 09:35 | 37.72478 | -1.67240 | 22057 ft | 387 kts | 207° |
| 2026-04-15 09:36 | 37.70119 | -1.68789 | 21549 ft | 385 kts | 207° |
| 2026-04-15 09:36 | 37.67732 | -1.70356 | 21036 ft | 382 kts | 207° |
| 2026-04-15 09:36 | 37.65382 | -1.71897 | 20531 ft | 379 kts | 207° |
| 2026-04-15 09:36 | 37.63071 | -1.73412 | 20033 ft | 376 kts | 207° |
| 2026-04-15 09:37 | 37.60731 | -1.74943 | 19531 ft | 373 kts | 207° |
| 2026-04-15 09:37 | 37.58463 | -1.76428 | 19042 ft | 370 kts | 207° |
| 2026-04-15 09:37 | 37.56160 | -1.77934 | 18548 ft | 368 kts | 207° |
| 2026-04-15 09:37 | 37.53898 | -1.79412 | 18062 ft | 365 kts | 207° |
| 2026-04-15 09:38 | 37.51670 | -1.80867 | 17582 ft | 362 kts | 207° |
| 2026-04-15 09:38 | 37.49441 | -1.82321 | 17104 ft | 360 kts | 207° |
| 2026-04-15 09:38 | 37.47203 | -1.83781 | 16623 ft | 357 kts | 207° |
| 2026-04-15 09:38 | 37.44999 | -1.85217 | 16148 ft | 355 kts | 207° |
| 2026-04-15 09:39 | 37.42833 | -1.86627 | 15684 ft | 352 kts | 207° |
| 2026-04-15 09:39 | 37.40655 | -1.88045 | 15216 ft | 348 kts | 207° |
| 2026-04-15 09:39 | 37.38540 | -1.89421 | 14761 ft | 341 kts | 207° |
| 2026-04-15 09:39 | 37.36454 | -1.90777 | 14314 ft | 333 kts | 207° |
| 2026-04-15 09:40 | 37.34399 | -1.92112 | 13872 ft | 327 kts | 207° |
| 2026-04-15 09:40 | 37.32411 | -1.93403 | 13446 ft | 321 kts | 207° |
| 2026-04-15 09:40 | 37.30423 | -1.94693 | 13018 ft | 315 kts | 207° |
| 2026-04-15 09:40 | 37.28485 | -1.95950 | 12602 ft | 310 kts | 207° |
| 2026-04-15 09:41 | 37.26598 | -1.97173 | 12198 ft | 305 kts | 207° |
| 2026-04-15 09:41 | 37.24714 | -1.98394 | 11792 ft | 301 kts | 207° |
| 2026-04-15 09:41 | 37.22861 | -1.99624 | 11394 ft | 297 kts | 208° |
| 2026-04-15 09:41 | 37.21064 | -2.00828 | 11007 ft | 293 kts | 208° |
| 2026-04-15 09:42 | 37.19269 | -2.02029 | 10619 ft | 290 kts | 208° |
| 2026-04-15 09:42 | 37.17508 | -2.03207 | 10238 ft | 286 kts | 208° |
| 2026-04-15 09:42 | 37.15754 | -2.04380 | 9859 ft | 282 kts | 208° |
| 2026-04-15 09:42 | 37.14032 | -2.05530 | 9486 ft | 279 kts | 208° |
| 2026-04-15 09:43 | 37.12315 | -2.06676 | 9115 ft | 275 kts | 208° |
| 2026-04-15 09:43 | 37.10632 | -2.07799 | 8751 ft | 272 kts | 208° |
| 2026-04-15 09:43 | 37.08992 | -2.08893 | 8397 ft | 269 kts | 208° |
| 2026-04-15 09:43 | 37.07342 | -2.09993 | 8040 ft | 265 kts | 208° |
| 2026-04-15 09:44 | 37.05721 | -2.11075 | 7689 ft | 262 kts | 208° |
| 2026-04-15 09:44 | 37.04066 | -2.12068 | 7119 ft | 267 kts | 197° |
| 2026-04-15 09:44 | 37.02235 | -2.12270 | 6605 ft | 262 kts | 171° |
| 2026-04-15 09:44 | 37.00538 | -2.11576 | 6245 ft | 254 kts | 151° |
| 2026-04-15 09:45 | 36.99129 | -2.10285 | 5957 ft | 244 kts | 137° |
| 2026-04-15 09:45 | 36.97967 | -2.08815 | 5642 ft | 237 kts | 134° |
| 2026-04-15 09:45 | 36.96789 | -2.07380 | 5297 ft | 232 kts | 138° |
| 2026-04-15 09:45 | 36.95559 | -2.06117 | 4943 ft | 228 kts | 144° |
| 2026-04-15 09:46 | 36.94109 | -2.05363 | 4464 ft | 228 kts | 174° |
| 2026-04-15 09:46 | 36.92629 | -2.05794 | 3910 ft | 219 kts | 213° |
| 2026-04-15 09:46 | 36.91710 | -2.07188 | 3558 ft | 203 kts | 245° |
| 2026-04-15 09:46 | 36.91293 | -2.08799 | 3402 ft | 180 kts | 254° |
| 2026-04-15 09:47 | 36.90939 | -2.10236 | 3420 ft | 172 kts | 252° |
| 2026-04-15 09:47 | 36.90577 | -2.11661 | 3393 ft | 169 kts | 253° |
| 2026-04-15 09:47 | 36.90236 | -2.13052 | 3387 ft | 165 kts | 253° |
| 2026-04-15 09:47 | 36.89898 | -2.14439 | 3343 ft | 166 kts | 253° |
| 2026-04-15 09:48 | 36.89559 | -2.15832 | 3225 ft | 170 kts | 253° |
| 2026-04-15 09:48 | 36.89216 | -2.17244 | 2995 ft | 167 kts | 253° |
| 2026-04-15 09:48 | 36.88880 | -2.18625 | 2786 ft | 168 kts | 253° |
| 2026-04-15 09:48 | 36.88542 | -2.20017 | 2565 ft | 167 kts | 253° |
| 2026-04-15 09:49 | 36.88205 | -2.21399 | 2344 ft | 166 kts | 253° |
| 2026-04-15 09:49 | 36.87865 | -2.22795 | 2122 ft | 166 kts | 253° |
| 2026-04-15 09:49 | 36.87530 | -2.24169 | 1901 ft | 165 kts | 253° |
| 2026-04-15 09:49 | 36.87195 | -2.25547 | 1681 ft | 165 kts | 253° |
| 2026-04-15 09:50 | 36.86864 | -2.26903 | 1464 ft | 164 kts | 253° |
| 2026-04-15 09:50 | 36.86530 | -2.28272 | 1246 ft | 160 kts | 253° |
| 2026-04-15 09:50 | 36.86231 | -2.29495 | 1075 ft | 140 kts | 253° |
| 2026-04-15 09:50 | 36.85949 | -2.30649 | 869 ft | 134 kts | 253° |
| 2026-04-15 09:51 | 36.85683 | -2.31737 | 672 ft | 130 kts | 253° |
| 2026-04-15 09:51 | 36.85419 | -2.32815 | 513 ft | 128 kts | 253° |
| 2026-04-15 09:51 | 36.85157 | -2.33883 | 346 ft | 128 kts | 253° |
| 2026-04-15 09:51 | 36.84899 | -2.34943 | 177 ft | 127 kts | 253° |
| 2026-04-15 09:52 | 36.84645 | -2.35979 | 51 ft | 117 kts | 253° |
| 2026-04-15 09:52 | 36.84453 | -2.36746 | 41 ft | 61 kts | 254° |
| 2026-04-15 09:52 | 36.84383 | -2.37051 | 40 ft | 32 kts | 252° |
| 2026-04-15 09:52 | 36.84303 | -2.37375 | 37 ft | 41 kts | 253° |
| 2026-04-15 09:53 | 36.84229 | -2.37674 | 34 ft | 34 kts | 252° |
| 2026-04-15 09:53 | 36.84195 | -2.37964 | 32 ft | 32 kts | 277° |
| 2026-04-15 09:53 | 36.84228 | -2.38183 | 34 ft | 18 kts | 299° |
| 2026-04-15 09:53 | 36.84287 | -2.38147 | 38 ft | 14 kts | 73° |
| 2026-04-15 09:54 | 36.84325 | -2.37986 | 40 ft | 17 kts | 70° |
| 2026-04-15 09:54 | 36.84379 | -2.37908 | 43 ft | 9 kts | 359° |
| 2026-04-15 09:54 | 36.84439 | -2.37923 | 47 ft | 8 kts | 358° |
| 2026-04-15 09:54 | 36.84504 | -2.37934 | 51 ft | 0 kts | 345° |